createdAt,value
2023-04-06T00:00:27.450Z,6.30
2023-04-06T00:02:54.703Z,6.65
2023-04-06T00:05:22.954Z,6.47
2023-04-06T00:07:50.634Z,6.20
2023-04-06T00:10:18.226Z,6.45
2023-04-06T00:12:45.281Z,6.25
2023-04-06T00:15:12.318Z,6.03
2023-04-06T00:17:39.439Z,6.40
2023-04-06T00:20:07.853Z,5.72
2023-04-06T00:22:35.263Z,6.25
2023-04-06T00:25:02.621Z,6.38
2023-04-06T00:27:29.727Z,6.43
2023-04-06T00:29:57.007Z,6.18
2023-04-06T00:32:24.228Z,6.35
2023-04-06T00:34:51.336Z,6.00
2023-04-06T00:37:18.313Z,6.93
2023-04-06T00:39:45.586Z,5.78
2023-04-06T00:42:17.319Z,6.32
2023-04-06T00:44:44.599Z,6.07
2023-04-06T00:47:11.735Z,5.90
2023-04-06T00:49:38.815Z,5.90
2023-04-06T00:52:06.067Z,6.20
2023-04-06T00:54:33.137Z,5.18
2023-04-06T00:57:00.798Z,5.90
2023-04-06T00:59:29.893Z,5.45
2023-04-06T01:01:57.033Z,5.78
2023-04-06T01:04:24.140Z,5.70
2023-04-06T01:06:51.687Z,6.03
2023-04-06T01:09:19.041Z,6.28
2023-04-06T01:11:46.138Z,5.90
2023-04-06T01:14:13.276Z,5.97
2023-04-06T01:16:40.589Z,6.68
2023-04-06T01:19:14.304Z,6.28
2023-04-06T01:21:42.429Z,6.30
2023-04-06T01:24:10.813Z,6.35
2023-04-06T01:26:39.588Z,6.43
2023-04-06T01:29:06.922Z,5.68
2023-04-06T01:31:34.249Z,6.13
2023-04-06T01:34:01.602Z,6.30
2023-04-06T01:36:28.662Z,5.22
2023-04-06T01:38:55.757Z,5.90
2023-04-06T01:41:22.816Z,5.90
2023-04-06T01:43:50.733Z,6.22
2023-04-06T01:46:17.826Z,5.85
2023-04-06T01:48:45.013Z,5.80
2023-04-06T01:51:12.098Z,5.57
2023-04-06T01:53:39.132Z,6.45
2023-04-06T01:56:06.691Z,6.47
2023-04-06T01:58:33.807Z,5.82
2023-04-06T02:01:01.219Z,6.32
2023-04-06T02:03:28.302Z,6.18
2023-04-06T02:05:55.675Z,5.75
2023-04-06T02:08:22.652Z,5.75
2023-04-06T02:10:49.734Z,6.45
2023-04-06T02:13:16.768Z,6.13
2023-04-06T02:15:43.849Z,6.65
2023-04-06T02:18:11.281Z,6.22
2023-04-06T02:20:38.314Z,6.43
2023-04-06T02:23:05.357Z,5.72
2023-04-06T02:25:32.461Z,6.55
2023-04-06T02:27:59.554Z,6.00
2023-04-06T02:30:26.617Z,5.90
2023-04-06T02:32:53.743Z,5.30
2023-04-06T02:35:21.065Z,6.47
2023-04-06T02:37:48.145Z,6.30
2023-04-06T02:40:15.537Z,6.13
2023-04-06T02:42:42.658Z,6.22
2023-04-06T02:45:09.886Z,6.22
2023-04-06T02:47:36.939Z,5.80
2023-04-06T02:50:04.235Z,6.40
2023-04-06T02:52:31.287Z,6.25
2023-04-06T02:54:58.293Z,5.90
2023-04-06T02:57:25.388Z,5.93
2023-04-06T02:59:55.723Z,5.40
2023-04-06T03:02:22.823Z,6.15
2023-04-06T03:04:49.899Z,6.07
2023-04-06T03:07:16.876Z,5.90
2023-04-06T03:09:43.910Z,6.05
2023-04-06T03:12:10.957Z,6.57
2023-04-06T03:14:38.016Z,6.35
2023-04-06T03:17:05.022Z,6.55
2023-04-06T03:19:32.202Z,5.93
2023-04-06T03:21:59.210Z,5.57
2023-04-06T03:24:26.233Z,5.78
2023-04-06T03:26:53.285Z,6.22
2023-04-06T03:29:20.507Z,6.60
2023-04-06T03:31:47.601Z,5.70
2023-04-06T03:34:14.690Z,5.75
2023-04-06T03:36:41.720Z,6.18
2023-04-06T03:39:09.040Z,6.32
2023-04-06T03:41:36.407Z,5.90
2023-04-06T03:44:03.693Z,5.90
2023-04-06T03:46:30.811Z,6.68
2023-04-06T03:48:57.872Z,6.05
2023-04-06T03:51:24.922Z,6.20
2023-04-06T03:53:52.505Z,5.70
2023-04-06T03:56:19.550Z,6.28
2023-04-06T03:58:46.577Z,6.78
2023-04-06T04:01:13.719Z,5.72
2023-04-06T04:03:40.872Z,5.68
2023-04-06T04:06:08.058Z,6.18
2023-04-06T04:08:36.500Z,6.53
2023-04-06T04:11:03.584Z,5.60
2023-04-06T04:13:30.854Z,5.72
2023-04-06T04:15:57.914Z,5.97
2023-04-06T04:18:25.864Z,6.18
2023-04-06T04:20:53.285Z,6.20
2023-04-06T04:23:20.345Z,6.03
2023-04-06T04:25:47.391Z,6.05
2023-04-06T04:28:14.393Z,5.95
2023-04-06T04:30:41.766Z,6.57
2023-04-06T04:33:08.828Z,6.38
2023-04-06T04:35:36.092Z,6.30
2023-04-06T04:38:03.176Z,5.45
2023-04-06T04:40:30.422Z,5.78
2023-04-06T04:42:57.742Z,5.68
2023-04-06T04:45:24.854Z,6.00
2023-04-06T04:47:55.308Z,5.97
2023-04-06T04:50:22.401Z,6.80
2023-04-06T04:52:49.450Z,6.90
2023-04-06T04:55:16.647Z,5.82
2023-04-06T04:57:43.667Z,5.82
2023-04-06T05:00:11.641Z,5.47
2023-04-06T05:02:39.133Z,5.72
2023-04-06T05:05:06.696Z,5.50
2023-04-06T05:07:35.010Z,6.20
2023-04-06T05:10:02.408Z,5.82
2023-04-06T05:12:29.898Z,5.78
2023-04-06T05:14:57.017Z,6.43
2023-04-06T05:17:24.228Z,5.75
2023-04-06T05:19:51.380Z,5.25
2023-04-06T05:22:18.794Z,6.07
2023-04-06T05:24:46.008Z,5.45
2023-04-06T05:27:13.073Z,5.80
2023-04-06T05:29:42.202Z,5.50
2023-04-06T05:32:09.337Z,5.22
2023-04-06T05:34:36.733Z,5.25
2023-04-06T05:37:03.870Z,5.32
2023-04-06T05:39:31.281Z,5.68
2023-04-06T05:41:58.314Z,4.97
2023-04-06T05:44:25.313Z,5.95
2023-04-06T05:46:52.371Z,5.57
2023-04-06T05:49:19.541Z,5.53
2023-04-06T05:51:46.617Z,5.82
2023-04-06T05:54:13.623Z,5.75
2023-04-06T05:56:40.672Z,5.35
2023-04-06T05:59:07.981Z,5.03
2023-04-06T06:01:36.148Z,5.40
2023-04-06T06:04:03.441Z,5.35
2023-04-06T06:06:33.313Z,5.40
2023-04-06T06:09:01.912Z,5.60
2023-04-06T06:11:29.084Z,5.68
2023-04-06T06:13:56.389Z,5.75
2023-04-06T06:16:23.865Z,5.75
2023-04-06T06:18:50.989Z,5.75
2023-04-06T06:21:18.238Z,5.63
2023-04-06T06:23:45.366Z,6.00
2023-04-06T06:26:12.445Z,4.95
2023-04-06T06:28:39.532Z,6.15
2023-04-06T06:31:06.596Z,5.57
2023-04-06T06:33:33.777Z,5.65
2023-04-06T06:36:01.136Z,5.78
2023-04-06T06:38:28.201Z,5.97
2023-04-06T06:40:55.309Z,6.03
2023-04-06T06:43:22.382Z,5.80
2023-04-06T06:45:49.550Z,5.80
2023-04-06T06:48:16.692Z,6.43
2023-04-06T06:50:43.740Z,5.75
2023-04-06T06:53:12.159Z,6.00
2023-04-06T06:55:39.171Z,6.03
2023-04-06T06:58:07.335Z,5.88
2023-04-06T07:00:34.485Z,6.10
2023-04-06T07:03:01.856Z,5.78
2023-04-06T07:05:29.252Z,6.00
2023-04-06T07:07:57.307Z,5.75
2023-04-06T07:10:24.592Z,5.93
2023-04-06T07:12:51.628Z,6.00
2023-04-06T07:15:18.973Z,6.13
2023-04-06T07:17:46.604Z,6.10
2023-04-06T07:20:14.266Z,6.22
2023-04-06T07:22:43.744Z,6.07
2023-04-06T07:25:11.253Z,6.63
2023-04-06T07:27:38.404Z,6.03
2023-04-06T07:30:06.877Z,6.55
2023-04-06T07:32:35.861Z,5.95
2023-04-06T07:35:03.678Z,6.20
2023-04-06T07:37:30.732Z,6.53
2023-04-06T07:39:57.891Z,6.82
2023-04-06T07:42:24.992Z,6.72
2023-04-06T07:44:52.038Z,6.43
2023-04-06T07:47:19.152Z,6.00
2023-04-06T07:49:46.490Z,5.95
2023-04-06T07:52:13.575Z,6.32
2023-04-06T07:54:42.829Z,6.15
2023-04-06T07:57:09.954Z,6.57
2023-04-06T07:59:37.210Z,6.75
2023-04-06T08:02:04.358Z,5.85
2023-04-06T08:04:31.440Z,6.85
2023-04-06T08:06:58.534Z,6.32
2023-04-06T08:09:25.796Z,6.32
2023-04-06T08:11:52.872Z,6.47
2023-04-06T08:14:20.007Z,6.55
2023-04-06T08:16:47.050Z,6.85
2023-04-06T08:19:14.078Z,6.13
2023-04-06T08:21:41.265Z,6.40
2023-04-06T08:24:08.501Z,6.35
2023-04-06T08:26:35.802Z,7.15
2023-04-06T08:29:05.120Z,7.20
2023-04-06T08:31:32.377Z,6.95
2023-04-06T08:33:59.471Z,7.05
2023-04-06T08:36:26.610Z,6.97
2023-04-06T08:38:55.022Z,7.30
2023-04-06T08:41:22.435Z,7.35
2023-04-06T08:44:01.799Z,7.00
2023-04-06T08:46:31.613Z,6.43
2023-04-06T08:49:04.426Z,6.50
2023-04-06T08:51:32.170Z,7.20
2023-04-06T08:54:00.795Z,7.18
2023-04-06T08:56:30.636Z,7.40
2023-04-06T08:58:58.396Z,6.90
2023-04-06T09:01:30.694Z,7.32
2023-04-06T09:04:01.980Z,7.07
2023-04-06T09:06:29.308Z,7.32
2023-04-06T09:08:56.421Z,7.22
2023-04-06T09:11:23.638Z,7.07
2023-04-06T09:13:52.605Z,7.97
2023-04-06T09:16:20.327Z,7.70
2023-04-06T09:18:48.221Z,6.93
2023-04-06T09:21:18.875Z,7.75
2023-04-06T09:23:46.632Z,7.60
2023-04-06T09:26:16.056Z,6.93
2023-04-06T09:28:52.709Z,7.53
2023-04-06T09:31:28.129Z,7.28
2023-04-06T09:33:55.892Z,7.70
2023-04-06T09:36:39.592Z,8.30
2023-04-06T09:39:07.001Z,7.57
2023-04-06T09:41:36.426Z,7.45
2023-04-06T09:44:07.588Z,8.80
2023-04-06T09:46:59.894Z,8.82
2023-04-06T09:49:34.569Z,7.57
2023-04-06T09:52:04.345Z,8.32
2023-04-06T09:54:32.668Z,7.88
2023-04-06T09:57:12.012Z,8.32
2023-04-06T10:00:12.834Z,7.40
2023-04-06T10:02:59.171Z,7.95
2023-04-06T10:05:37.199Z,8.50
2023-04-06T10:08:10.128Z,8.00
2023-04-06T10:10:37.785Z,8.40
2023-04-06T10:13:11.436Z,8.02
2023-04-06T10:15:40.195Z,8.68
2023-04-06T10:18:08.784Z,8.43
2023-04-06T10:20:50.735Z,8.38
2023-04-06T10:23:48.381Z,8.68
2023-04-06T10:26:17.987Z,9.52
2023-04-06T10:28:47.129Z,8.88
2023-04-06T10:31:14.813Z,9.90
2023-04-06T10:33:42.501Z,9.05
2023-04-06T10:36:22.453Z,10.00
2023-04-06T10:38:57.570Z,8.68
2023-04-06T10:41:24.897Z,9.80
2023-04-06T10:43:58.479Z,8.75
2023-04-06T10:46:33.477Z,8.05
2023-04-06T10:49:15.741Z,8.05
2023-04-06T10:51:42.823Z,7.53
2023-04-06T10:54:12.537Z,8.48
2023-04-06T10:56:40.591Z,8.23
2023-04-06T10:59:08.812Z,8.50
2023-04-06T11:01:35.980Z,8.77
2023-04-06T11:04:03.756Z,8.38
2023-04-06T11:06:32.642Z,9.32
2023-04-06T11:09:00.018Z,9.20
2023-04-06T11:11:28.305Z,8.70
2023-04-06T11:13:56.520Z,7.93
2023-04-06T11:16:28.638Z,8.82
2023-04-06T11:18:57.268Z,10.65
2023-04-06T11:21:41.227Z,8.93
2023-04-06T11:24:17.066Z,9.63
2023-04-06T11:26:56.172Z,9.30
2023-04-06T11:29:24.344Z,9.77
2023-04-06T11:31:53.584Z,10.60
2023-04-06T11:34:22.856Z,9.35
2023-04-06T11:36:55.379Z,10.07
2023-04-06T11:39:25.116Z,10.10
2023-04-06T11:41:53.756Z,9.07
2023-04-06T11:44:37.964Z,9.98
2023-04-06T11:47:07.234Z,9.88
2023-04-06T11:49:37.681Z,10.98
2023-04-06T11:52:16.646Z,10.60
2023-04-06T11:54:43.722Z,9.80
2023-04-06T11:57:10.859Z,10.32
2023-04-06T11:59:37.995Z,9.90
2023-04-06T12:02:05.960Z,9.77
2023-04-06T12:04:33.145Z,9.27
2023-04-06T12:07:00.598Z,9.25
2023-04-06T12:09:27.651Z,9.73
2023-04-06T12:11:54.720Z,9.10
2023-04-06T12:14:22.316Z,10.05
2023-04-06T12:16:50.251Z,9.65
2023-04-06T12:19:17.367Z,9.90
2023-04-06T12:21:44.384Z,11.35
2023-04-06T12:24:11.478Z,9.35
2023-04-06T12:26:38.638Z,9.18
2023-04-06T12:29:08.984Z,9.80
2023-04-06T12:31:37.621Z,9.27
2023-04-06T12:34:05.050Z,9.30
2023-04-06T12:36:32.789Z,9.27
2023-04-06T12:39:00.343Z,10.07
2023-04-06T12:41:28.961Z,8.90
2023-04-06T12:43:56.405Z,9.73
2023-04-06T12:46:26.037Z,11.35
2023-04-06T12:48:56.834Z,9.70
2023-04-06T12:51:24.218Z,8.98
2023-04-06T12:53:51.571Z,8.63
2023-04-06T12:56:19.478Z,8.73
2023-04-06T12:58:46.729Z,9.35
2023-04-06T13:01:14.349Z,9.00
2023-04-06T13:03:42.600Z,9.60
2023-04-06T13:06:11.697Z,9.73
2023-04-06T13:08:40.070Z,8.07
2023-04-06T13:11:10.647Z,7.95
2023-04-06T13:13:38.440Z,8.73
2023-04-06T13:16:08.683Z,9.05
2023-04-06T13:18:37.926Z,8.98
2023-04-06T13:21:05.878Z,9.18
2023-04-06T13:23:33.021Z,8.95
2023-04-06T13:26:04.878Z,8.25
2023-04-06T13:28:32.663Z,8.45
2023-04-06T13:31:04.171Z,8.13
2023-04-06T13:33:31.937Z,8.27
2023-04-06T13:35:59.844Z,8.00
2023-04-06T13:38:27.189Z,8.10
2023-04-06T13:40:54.483Z,8.05
2023-04-06T13:43:21.873Z,7.75
2023-04-06T13:45:56.850Z,7.75
2023-04-06T13:48:24.199Z,7.38
2023-04-06T13:50:51.335Z,7.15
2023-04-06T13:53:18.750Z,8.27
2023-04-06T13:55:53.009Z,7.50
2023-04-06T14:00:47.444Z,6.90
2023-04-06T14:03:14.727Z,6.13
2023-04-06T14:05:41.789Z,6.55
2023-04-06T14:08:08.823Z,6.18
2023-04-06T14:10:43.467Z,5.20
2023-04-06T14:13:10.704Z,4.40
2023-04-06T14:15:37.773Z,4.07
2023-04-06T14:18:04.991Z,4.85
2023-04-06T14:20:35.528Z,4.50
2023-04-06T14:23:03.332Z,4.43
2023-04-06T14:25:32.666Z,5.22
2023-04-06T14:27:59.805Z,4.90
2023-04-06T14:30:27.008Z,5.13
2023-04-06T14:32:54.162Z,4.78
2023-04-06T14:35:21.448Z,4.45
2023-04-06T14:37:48.472Z,3.80
2023-04-06T14:40:15.602Z,4.18
2023-04-06T14:42:42.748Z,4.88
2023-04-06T14:45:10.111Z,4.50
2023-04-06T14:47:37.215Z,5.60
2023-04-06T14:50:04.670Z,4.70
2023-04-06T14:52:32.695Z,5.45
2023-04-06T14:55:00.139Z,6.18
2023-04-06T14:57:27.287Z,5.88
2023-04-06T14:59:55.626Z,5.57
2023-04-06T15:02:22.875Z,5.85
2023-04-06T15:04:51.321Z,5.63
2023-04-06T15:07:19.621Z,6.22
2023-04-06T15:09:46.664Z,6.53
2023-04-06T15:12:13.786Z,7.13
2023-04-06T15:14:41.073Z,10.73
2023-04-06T15:17:08.220Z,10.35
2023-04-06T15:19:35.374Z,10.60
2023-04-06T15:22:02.483Z,7.00
2023-04-06T15:24:29.565Z,6.70
2023-04-06T15:26:56.962Z,6.70
2023-04-06T15:29:24.027Z,6.88
2023-04-06T15:31:51.399Z,6.05
2023-04-06T15:34:19.229Z,6.00
2023-04-06T15:36:46.886Z,6.38
2023-04-06T15:39:14.662Z,6.18
2023-04-06T15:41:41.838Z,5.85
2023-04-06T15:44:08.867Z,5.53
2023-04-06T15:46:35.950Z,7.85
2023-04-06T15:49:03.228Z,5.97
2023-04-06T15:51:30.471Z,5.65
2023-04-06T15:53:58.820Z,5.57
2023-04-06T15:56:26.088Z,5.95
2023-04-06T15:58:53.189Z,5.13
2023-04-06T16:01:20.665Z,4.95
2023-04-06T16:03:48.120Z,6.07
2023-04-06T16:06:15.644Z,5.55
2023-04-06T16:08:42.832Z,6.38
2023-04-06T16:11:10.709Z,5.53
2023-04-06T16:13:37.930Z,8.18
2023-04-06T16:16:06.297Z,7.55
2023-04-06T16:18:35.766Z,6.20
2023-04-06T16:21:03.861Z,5.50
2023-04-06T16:23:31.389Z,5.13
2023-04-06T16:25:58.676Z,5.63
2023-04-06T16:28:25.872Z,6.15
2023-04-06T16:30:53.508Z,8.02
2023-04-06T16:33:21.109Z,8.00
2023-04-06T16:35:48.701Z,8.02
2023-04-06T16:38:17.474Z,6.72
2023-04-06T16:40:44.727Z,7.10
2023-04-06T16:43:12.169Z,6.93
2023-04-06T16:45:39.256Z,6.95
2023-04-06T16:48:06.889Z,6.10
2023-04-06T16:50:35.956Z,6.10
2023-04-06T16:53:03.140Z,6.60
2023-04-06T16:55:30.216Z,6.30
2023-04-06T16:57:57.260Z,6.93
2023-04-06T17:00:24.539Z,6.72
2023-04-06T17:02:51.756Z,6.45
2023-04-06T17:05:24.894Z,7.80
2023-04-06T17:07:52.176Z,7.03
2023-04-06T17:10:28.606Z,7.15
2023-04-06T17:13:01.141Z,7.53
2023-04-06T17:15:29.779Z,7.30
2023-04-06T17:17:57.984Z,8.35
2023-04-06T17:20:25.176Z,8.55
2023-04-06T17:22:52.427Z,9.23
2023-04-06T17:25:19.978Z,8.45
2023-04-06T17:27:47.547Z,8.88
2023-04-06T17:30:17.910Z,9.75
2023-04-06T17:32:46.510Z,9.38
2023-04-06T17:35:13.665Z,9.27
2023-04-06T17:37:44.705Z,9.73
2023-04-06T17:40:12.099Z,10.35
2023-04-06T17:42:39.151Z,10.75
2023-04-06T17:45:06.904Z,9.52
2023-04-06T17:47:34.038Z,10.50
2023-04-06T17:50:02.376Z,9.68
2023-04-06T17:52:30.036Z,9.80
2023-04-06T17:54:57.154Z,10.07
2023-04-06T17:57:24.249Z,9.73
2023-04-06T17:59:51.473Z,9.68
2023-04-06T18:02:20.232Z,9.95
2023-04-06T18:04:48.056Z,10.32
2023-04-06T18:07:15.177Z,9.70
2023-04-06T18:09:42.325Z,9.63
2023-04-06T18:12:09.373Z,9.82
2023-04-06T18:14:36.838Z,9.32
2023-04-06T18:17:03.841Z,10.30
2023-04-06T18:19:33.170Z,9.93
2023-04-06T18:22:00.573Z,9.25
2023-04-06T18:24:41.191Z,9.45
2023-04-06T18:27:09.897Z,10.60
2023-04-06T18:29:37.241Z,9.70
2023-04-06T18:32:05.709Z,9.80
2023-04-06T18:34:33.505Z,10.27
2023-04-06T18:37:02.150Z,10.13
2023-04-06T18:39:29.335Z,10.15
2023-04-06T18:41:56.785Z,9.63
2023-04-06T18:44:23.938Z,9.73
2023-04-06T18:46:54.931Z,9.88
2023-04-06T18:49:22.405Z,9.73
2023-04-06T18:51:49.556Z,10.27
2023-04-06T18:54:16.740Z,9.90
2023-04-06T18:56:44.880Z,10.10
2023-04-06T18:59:13.428Z,10.75
2023-04-06T19:01:43.908Z,9.65
2023-04-06T19:04:12.209Z,9.88
2023-04-06T19:06:39.451Z,11.38
2023-04-06T19:09:06.715Z,10.40
2023-04-06T19:11:34.492Z,9.50
2023-04-06T19:14:01.613Z,10.38
2023-04-06T19:16:29.529Z,11.30
2023-04-06T19:18:56.849Z,10.80
2023-04-06T19:21:26.412Z,10.45
2023-04-06T19:23:55.717Z,10.57
2023-04-06T19:26:24.382Z,10.18
2023-04-06T19:28:51.626Z,10.80
2023-04-06T19:31:19.383Z,12.10
2023-04-06T19:33:49.578Z,11.48
2023-04-06T19:36:17.149Z,11.77
2023-04-06T19:38:44.232Z,11.93
2023-04-06T19:41:11.532Z,12.15
2023-04-06T19:43:38.599Z,10.55
2023-04-06T19:46:05.939Z,11.23
2023-04-06T19:48:36.006Z,11.82
2023-04-06T19:51:03.203Z,11.10
2023-04-06T19:53:30.432Z,10.93
2023-04-06T19:55:57.571Z,11.07
2023-04-06T19:58:24.645Z,12.13
2023-04-06T20:00:51.717Z,10.48
2023-04-06T20:03:18.975Z,10.70
2023-04-06T20:05:46.969Z,9.43
2023-04-06T20:08:14.418Z,10.85
2023-04-06T20:10:41.613Z,10.50
2023-04-06T20:13:08.739Z,11.38
2023-04-06T20:15:36.163Z,10.45
2023-04-06T20:18:03.364Z,10.65
2023-04-06T20:20:31.000Z,10.35
2023-04-06T20:22:58.091Z,10.15
2023-04-06T20:25:25.201Z,11.43
2023-04-06T20:27:54.829Z,10.77
2023-04-06T20:30:22.633Z,10.00
2023-04-06T20:32:49.699Z,10.32
2023-04-06T20:35:16.838Z,9.88
2023-04-06T20:37:43.955Z,10.80
2023-04-06T20:40:12.294Z,10.27
2023-04-06T20:42:40.142Z,9.73
2023-04-06T20:45:07.679Z,10.27
2023-04-06T20:47:34.964Z,10.63
2023-04-06T20:50:02.042Z,10.32
2023-04-06T20:52:29.084Z,10.15
2023-04-06T20:54:56.513Z,9.25
2023-04-06T20:57:25.750Z,9.63
2023-04-06T20:59:52.828Z,9.30
2023-04-06T21:02:20.040Z,9.90
2023-04-06T21:04:47.222Z,9.52
2023-04-06T21:07:14.418Z,9.25
2023-04-06T21:09:41.737Z,9.65
2023-04-06T21:12:09.012Z,9.30
2023-04-06T21:14:36.785Z,9.30
2023-04-06T21:17:04.312Z,8.63
2023-04-06T21:19:31.605Z,9.02
2023-04-06T21:21:58.948Z,9.68
2023-04-06T21:24:26.179Z,9.63
2023-04-06T21:26:53.259Z,9.48
2023-04-06T21:29:20.502Z,9.35
2023-04-06T21:31:47.561Z,9.23
2023-04-06T21:34:14.946Z,9.73
2023-04-06T21:36:42.639Z,9.25
2023-04-06T21:39:09.800Z,10.65
2023-04-06T21:41:37.015Z,10.07
2023-04-06T21:44:04.954Z,11.02
2023-04-06T21:46:33.134Z,10.32
2023-04-06T21:49:00.389Z,10.90
2023-04-06T21:51:27.465Z,10.90
2023-04-06T21:53:56.561Z,11.50
2023-04-06T21:56:25.041Z,10.95
2023-04-06T21:58:53.069Z,11.90
2023-04-06T22:01:20.666Z,11.75
2023-04-06T22:03:48.267Z,11.73
2023-04-06T22:06:15.435Z,11.32
2023-04-06T22:08:48.780Z,11.27
2023-04-06T22:11:15.838Z,13.53
2023-04-06T22:13:42.882Z,12.38
2023-04-06T22:16:10.539Z,12.15
2023-04-06T22:18:39.270Z,12.13
2023-04-06T22:21:07.147Z,13.13
2023-04-06T22:23:34.337Z,12.68
2023-04-06T22:26:01.485Z,13.13
2023-04-06T22:28:28.527Z,13.20
2023-04-06T22:30:57.266Z,13.07
2023-04-06T22:33:24.396Z,13.93
2023-04-06T22:35:51.508Z,13.07
2023-04-06T22:38:18.592Z,13.23
2023-04-06T22:40:45.674Z,13.25
2023-04-06T22:43:12.745Z,13.45
2023-04-06T22:45:39.853Z,13.80
2023-04-06T22:48:06.955Z,12.52
2023-04-06T22:50:34.249Z,13.13
2023-04-06T22:53:01.625Z,13.77
2023-04-06T22:55:28.846Z,13.52
2023-04-06T22:57:56.156Z,12.90
2023-04-06T23:00:23.313Z,13.55
2023-04-06T23:02:50.482Z,13.07
2023-04-06T23:05:17.740Z,13.15
2023-04-06T23:07:44.748Z,13.63
2023-04-06T23:10:11.903Z,13.75
2023-04-06T23:12:38.992Z,13.60
2023-04-06T23:15:06.756Z,13.20
2023-04-06T23:17:34.117Z,13.43
2023-04-06T23:20:01.353Z,14.15
2023-04-06T23:22:28.434Z,13.07
2023-04-06T23:24:55.901Z,13.45
2023-04-06T23:27:22.944Z,14.07
2023-04-06T23:29:49.995Z,13.93
2023-04-06T23:32:17.018Z,14.32
2023-04-06T23:34:44.151Z,13.27
2023-04-06T23:37:11.300Z,14.38
2023-04-06T23:39:39.583Z,14.45
2023-04-06T23:42:06.641Z,13.13
2023-04-06T23:44:33.714Z,14.18
2023-04-06T23:47:00.789Z,13.25
2023-04-06T23:49:27.815Z,12.82
2023-04-06T23:51:54.891Z,12.95
2023-04-06T23:54:22.136Z,12.82
2023-04-06T23:56:50.843Z,12.55
2023-04-06T23:59:18.896Z,14.43
